Time;durP1;ratioP1;P1;durP2;ratioP2;P2;SDS_P1;SDS_P2;PMS_P1;PMS_P2;Temp;Humidity;BMP_temperature;BMP_pressure;BME280_temperature;BME280_humidity;BME280_pressure;Samples;Min_cycle;Max_cycle;Signal;HPM_P1;HPM_P2
2021/01/08 00:03:00;;;;;;;26.37;14.23;;;;;;;0.44;88.87;100217.68;4939332;60;21367;-88
2021/01/08 00:08:07;;;;;;;27.80;11.53;;;;;;;0.47;88.83;100215.38;4939242;60;21276;-88
2021/01/08 00:13:12;;;;;;;32.43;12.60;;;;;;;0.46;88.81;100211.93;4939496;60;21288;-88
2021/01/08 00:18:18;;;;;;;29.47;12.67;;;;;;;0.45;88.81;100211.56;4939559;60;21646;-88
2021/01/08 00:23:23;;;;;;;33.37;13.97;;;;;;;0.43;88.83;100208.17;4939472;60;21280;-88
2021/01/08 00:28:29;;;;;;;38.50;16.13;;;;;;;0.42;88.76;100199.13;4939358;60;21288;-89
2021/01/08 00:33:34;;;;;;;37.43;18.30;;;;;;;0.43;88.78;100208.17;4939322;60;21276;-88
2021/01/08 00:38:40;;;;;;;31.60;11.40;;;;;;;0.45;88.68;100206.81;4939393;60;21295;-88
2021/01/08 00:43:45;;;;;;;28.97;12.50;;;;;;;0.46;88.64;100209.81;4939249;60;21174;-88
2021/01/08 00:48:51;;;;;;;30.13;13.23;;;;;;;0.44;88.62;100210.33;4939124;60;21280;-88
2021/01/08 00:53:56;;;;;;;32.40;13.03;;;;;;;0.43;88.58;100212.53;4928520;60;21204;-88
2021/01/08 00:59:03;;;;;;;23.73;10.53;;;;;;;0.45;88.60;100218.07;4886720;61;21144;-88
2021/01/08 01:04:08;;;;;;;26.27;12.87;;;;;;;0.44;88.54;100217.68;4886755;61;21421;-88
2021/01/08 01:09:14;;;;;;;27.60;12.13;;;;;;;0.43;88.58;100221.19;4885466;61;21165;-88
2021/01/08 01:14:19;;;;;;;29.03;14.23;;;;;;;0.43;88.55;100222.48;4884845;61;21153;-88
2021/01/08 01:19:25;;;;;;;30.80;12.40;;;;;;;0.40;88.54;100214.80;4884553;61;21176;-88
2021/01/08 01:24:30;;;;;;;32.47;15.63;;;;;;;0.43;88.53;100220.34;4884683;61;21184;-88
2021/01/08 01:29:36;;;;;;;28.87;13.70;;;;;;;0.46;88.50;100223.64;4886703;61;21181;-87
2021/01/08 01:34:41;;;;;;;31.00;14.73;;;;;;;0.43;88.41;100220.34;4886628;61;21150;-88
2021/01/08 01:39:47;;;;;;;27.87;12.80;;;;;;;0.41;88.43;100218.25;4793902;59;1134107;-87
2021/01/08 01:44:52;;;;;;;16.10;8.60;;;;;;;0.40;88.46;100208.75;4886064;61;21161;-87
2021/01/08 01:49:58;;;;;;;25.90;14.30;;;;;;;0.39;88.47;100214.41;4810701;59;1132048;-88
2021/01/08 01:55:08;;;;;;;34.17;14.97;;;;;;;0.42;88.41;100214.29;4791025;59;1138380;-88
2021/01/08 02:00:14;;;;;;;27.87;13.10;;;;;;;0.40;88.43;100216.10;4878632;61;21106;-88
2021/01/08 02:05:22;;;;;;;25.23;11.90;;;;;;;0.43;88.38;100215.98;4878622;61;21145;-88
2021/01/08 02:10:32;;;;;;;29.90;14.90;;;;;;;0.43;88.49;100206.87;4878666;61;21610;-88
2021/01/08 02:15:39;;;;;;;15.87;7.37;;;;;;;0.46;88.39;100207.21;4878631;61;21098;-88
2021/01/08 02:20:45;;;;;;;25.97;11.57;;;;;;;0.46;88.27;100205.91;4878623;60;21153;-88
2021/01/08 02:25:52;;;;;;;25.23;14.17;;;;;;;0.44;88.24;100207.73;4878707;60;21189;-88
2021/01/08 02:30:57;;;;;;;28.30;13.23;;;;;;;0.43;88.24;100209.94;4879281;59;21518;-88
2021/01/08 02:36:04;;;;;;;21.00;9.40;;;;;;;0.42;88.19;100207.78;4786765;59;1134191;-88
2021/01/08 02:41:10;;;;;;;27.77;13.63;;;;;;;0.38;88.17;100197.11;4823606;59;1136299;-88
2021/01/08 02:46:16;;;;;;;32.90;14.43;;;;;;;0.37;88.15;100198.47;4879057;60;21153;-88
2021/01/08 02:51:22;;;;;;;17.98;8.30;;;;;;;0.33;88.20;100194.69;4842116;59;1134274;-88
2021/01/08 02:56:37;;;;;;;17.83;8.93;;;;;;;0.33;88.23;100202.94;4786545;59;1136303;-88
2021/01/08 03:01:44;;;;;;;27.00;12.60;;;;;;;0.30;88.28;100198.73;4833052;59;1134465;-87
2021/01/08 03:06:52;;;;;;;31.57;14.77;;;;;;;0.28;88.25;100200.55;4878893;61;21213;-88
2021/01/08 03:11:59;;;;;;;23.18;11.03;;;;;;;0.28;88.20;100201.00;4841559;59;1134262;-87
2021/01/08 03:17:04;;;;;;;27.43;12.47;;;;;;;0.27;88.22;100197.55;4786360;59;1139236;-87
2021/01/08 03:22:10;;;;;;;31.27;14.13;;;;;;;0.27;88.20;100201.45;4823107;59;1142373;-87
2021/01/08 03:27:15;;;;;;;27.57;13.07;;;;;;;0.26;88.17;100202.81;4804489;59;1138380;-87
2021/01/08 03:32:21;;;;;;;26.30;13.37;;;;;;;0.27;88.12;100195.41;4877747;61;21207;-87
2021/01/08 03:37:27;;;;;;;25.30;11.33;;;;;;;0.24;88.15;100198.12;4822924;59;1134246;-87
2021/01/08 03:42:33;;;;;;;27.70;14.18;;;;;;;0.27;88.06;100210.55;4785275;59;1138702;-87
2021/01/08 03:47:38;;;;;;;18.73;9.37;;;;;;;0.27;88.04;100202.75;4822419;59;1138410;-87
2021/01/08 03:52:44;;;;;;;26.80;13.23;;;;;;;0.25;88.00;100194.16;4785456;59;1136469;-86
2021/01/08 03:57:49;;;;;;;19.27;7.80;;;;;;;0.24;87.96;100198.12;4833331;59;1138169;-86
2021/01/08 04:02:55;;;;;;;30.37;13.10;;;;;;;0.21;88.05;100189.14;4833685;59;1136240;-86
2021/01/08 04:08:00;;;;;;;27.48;13.53;;;;;;;0.18;88.09;100199.20;4814979;59;1138364;-86
2021/01/08 04:13:06;;;;;;;19.93;9.43;;;;;;;0.18;88.07;100194.45;4870706;59;1138513;-86
2021/01/08 04:18:11;;;;;;;20.17;9.63;;;;;;;0.21;88.02;100204.74;4816057;59;1136683;-86
2021/01/08 04:23:18;;;;;;;18.10;9.03;;;;;;;0.21;87.92;100202.14;4815181;59;1136680;-86
2021/01/08 04:28:23;;;;;;;24.67;13.23;;;;;;;0.19;87.97;100202.20;4852503;59;1136160;-86
2021/01/08 04:33:29;;;;;;;23.90;12.67;;;;;;;0.18;87.89;100197.91;4814534;59;1138712;-86
2021/01/08 04:38:34;;;;;;;22.87;11.53;;;;;;;0.16;87.85;100201.47;4870659;59;1136344;-85
2021/01/08 04:43:40;;;;;;;33.23;14.80;;;;;;;0.17;87.85;100205.31;4833193;59;1138440;-85
2021/01/08 04:48:46;;;;;;;18.40;10.07;;;;;;;0.17;87.84;100195.36;4816538;59;1138260;-85
2021/01/08 04:53:53;;;;;;;31.93;15.50;;;;;;;0.17;87.83;100199.27;4851906;59;1138414;-85
2021/01/08 04:58:58;;;;;;;32.67;14.60;;;;;;;0.15;87.82;100203.70;4807041;59;1138534;-85
2021/01/08 05:04:04;;;;;;;19.97;12.20;;;;;;;0.17;87.82;100204.01;4810998;59;1138454;-85
2021/01/08 05:09:10;;;;;;;30.40;15.23;;;;;;;0.22;87.80;100203.38;4806326;59;1138583;-86
2021/01/08 05:14:17;;;;;;;29.13;13.33;;;;;;;0.20;87.74;100206.95;4769796;60;1138308;-85
2021/01/08 05:19:27;;;;;;;27.60;13.63;;;;;;;0.23;87.67;100206.83;4795332;59;1138789;-85
2021/01/08 05:24:33;;;;;;;29.13;13.40;;;;;;;0.24;87.59;100197.67;4791940;59;1138274;-85
2021/01/08 05:29:38;;;;;;;23.30;12.40;;;;;;;0.22;87.71;100208.58;4796844;59;1138369;-85
2021/01/08 05:34:46;;;;;;;26.93;13.57;;;;;;;0.24;87.61;100213.27;4811224;59;1138682;-85
2021/01/08 05:39:51;;;;;;;29.20;14.47;;;;;;;0.26;87.47;100212.77;4791102;59;1138809;-85
2021/01/08 05:44:57;;;;;;;23.87;13.17;;;;;;;0.22;87.50;100206.44;4829774;59;1138263;-85
2021/01/08 05:50:02;;;;;;;36.97;14.37;;;;;;;0.28;87.59;100217.91;4799091;59;1138564;-86
2021/01/08 05:55:13;;;;;;;26.30;13.60;;;;;;;0.28;87.40;100221.35;4792772;59;1138631;-85
2021/01/08 06:00:19;;;;;;;20.40;10.65;;;;;;;0.31;87.61;100212.09;4831796;59;1138432;-85
2021/01/08 06:05:27;;;;;;;23.37;12.40;;;;;;;0.30;87.30;100223.45;4838399;59;1138631;-85
2021/01/08 06:10:36;;;;;;;17.70;9.77;;;;;;;0.28;87.24;100225.25;4854433;59;1138750;-85
2021/01/08 06:15:42;;;;;;;34.65;16.60;;;;;;;0.28;87.22;100225.70;4841904;59;1136343;-85
2021/01/08 06:20:51;;;;;;;34.37;15.67;;;;;;;0.25;87.36;100233.63;4837659;59;1138496;-84
2021/01/08 06:26:00;;;;;;;27.70;13.37;;;;;;;0.27;87.32;100229.21;4821246;59;1138327;-85
2021/01/08 06:31:12;;;;;;;32.40;14.60;;;;;;;0.26;87.28;100236.17;4843059;59;1138298;-84
2021/01/08 06:36:21;;;;;;;27.73;13.07;;;;;;;0.26;87.38;100243.97;4844641;59;1138538;-84
2021/01/08 06:41:27;;;;;;;27.00;14.10;;;;;;;0.30;87.35;100248.16;4900220;59;1138312;-85
2021/01/08 06:46:37;;;;;;;28.13;14.33;;;;;;;0.34;87.42;100252.30;4843750;59;1138291;-85
2021/01/08 06:51:43;;;;;;;31.82;14.40;;;;;;;0.32;87.20;100259.31;4842469;59;1138560;-85
2021/01/08 06:56:49;;;;;;;22.10;12.67;;;;;;;0.32;87.10;100260.61;4862682;59;1138433;-84
2021/01/08 07:02:16;;;;;;;19.53;10.13;;;;;;;0.32;87.14;100269.72;4853578;59;1138361;-85
2021/01/08 07:07:28;;;;;;;24.77;12.45;;;;;;;0.31;87.17;100270.63;4813676;59;1138492;-85
2021/01/08 07:12:34;;;;;;;28.03;14.20;;;;;;;0.30;87.05;100281.11;4814924;59;1138859;-85
2021/01/08 07:17:41;;;;;;;28.90;14.17;;;;;;;0.27;87.04;100281.23;4814048;59;1138539;-85
2021/01/08 07:22:56;;;;;;;34.70;15.07;;;;;;;0.30;87.18;100286.32;4815657;59;1138475;-84
2021/01/08 07:28:06;;;;;;;22.70;10.77;;;;;;;0.26;87.13;100292.09;4814144;59;1138371;-85
2021/01/08 07:33:19;;;;;;;37.40;15.57;;;;;;;0.30;87.09;100296.72;4813474;59;1138393;-84
2021/01/08 07:38:35;;;;;;;30.72;15.35;;;;;;;0.26;87.08;100298.59;4796924;59;1138340;-84
2021/01/08 07:43:40;;;;;;;31.80;14.00;;;;;;;0.30;87.15;100300.63;4832636;59;1138230;-84
2021/01/08 07:48:50;;;;;;;21.37;10.87;;;;;;;0.31;87.08;100304.44;4813498;59;1138536;-84
2021/01/08 07:53:55;;;;;;;31.60;14.90;;;;;;;0.32;87.09;100310.48;4813769;59;1138327;-87
2021/01/08 07:59:07;;;;;;;68.97;25.83;;;;;;;0.29;87.05;100310.63;4831359;59;1138406;-86
2021/01/08 08:04:14;;;;;;;130.57;64.75;;;;;;;0.30;87.04;100315.78;4814698;59;1138488;-86
2021/01/08 08:09:20;;;;;;;75.57;45.53;;;;;;;0.30;87.14;100323.58;4851273;58;1140322;-85
2021/01/08 08:14:26;;;;;;;33.70;16.87;;;;;;;0.31;87.20;100320.50;4814133;59;1138566;-84
2021/01/08 08:19:35;;;;;;;32.70;16.43;;;;;;;0.36;87.16;100322.47;4832845;59;1138329;-84
2021/01/08 08:24:41;;;;;;;45.43;20.07;;;;;;;0.38;87.17;100331.52;4813967;59;1138453;-84
2021/01/08 08:29:46;;;;;;;62.10;23.07;;;;;;;0.39;87.18;100331.47;4639410;60;1138257;-84
2021/01/08 08:34:54;;;;;;;27.57;14.33;;;;;;;0.42;87.19;100335.70;4814923;59;1138626;-83
2021/01/08 08:40:02;;;;;;;40.77;20.40;;;;;;;0.42;87.11;100331.81;4850832;59;1136694;-84
2021/01/08 08:45:19;;;;;;;38.40;16.50;;;;;;;0.40;87.11;100337.06;4832375;59;1138449;-84
2021/01/08 08:50:27;;;;;;;80.20;34.83;;;;;;;0.42;87.09;100339.16;4794575;59;1138766;-85
2021/01/08 08:55:34;;;;;;;43.92;20.10;;;;;;;0.43;87.11;100344.76;4795104;59;1138651;-85
2021/01/08 09:00:44;;;;;;;112.00;30.93;;;;;;;0.44;87.29;100347.76;4833031;59;1138810;-84
2021/01/08 09:05:54;;;;;;;68.33;21.43;;;;;;;0.48;87.24;100341.95;4846367;58;1140676;-85
2021/01/08 09:11:06;;;;;;;115.53;31.13;;;;;;;0.48;87.10;100338.90;4904129;58;1138344;-85
2021/01/08 09:16:16;;;;;;;108.93;30.03;;;;;;;0.51;87.28;100339.23;4784508;60;1140642;-84
2021/01/08 09:21:29;;;;;;;104.90;37.23;;;;;;;0.52;87.30;100339.63;4846849;59;1140509;-85
2021/01/08 09:26:35;;;;;;;40.17;18.50;;;;;;;0.59;87.23;100339.80;4796259;60;1140557;-85
2021/01/08 09:31:47;;;;;;;56.17;23.33;;;;;;;0.60;87.13;100346.25;4814193;59;1138283;-85
2021/01/08 09:36:55;;;;;;;69.30;24.77;;;;;;;0.58;87.26;100345.45;4791229;60;1138764;-85
2021/01/08 09:42:02;;;;;;;39.17;16.90;;;;;;;0.60;87.18;100341.05;4903560;58;1138336;-85
2021/01/08 09:47:13;;;;;;;61.33;25.23;;;;;;;0.61;86.98;100337.50;4921741;58;1139173;-85
2021/01/08 09:52:20;;;;;;;53.97;20.90;;;;;;;0.58;87.15;100337.66;4903323;58;1138454;-85
2021/01/08 09:57:34;;;;;;;145.72;45.38;;;;;;;0.59;87.12;100331.99;4792572;60;1138474;-85
2021/01/08 10:02:48;;;;;;;;;;;;;;;0.62;87.15;100336.59;4907199;58;1140526;-86
2021/01/08 10:07:57;;;;;;;65.10;26.20;;;;;;;0.69;87.19;100335.91;4851337;58;971441;-85
2021/01/08 10:13:05;;;;;;;43.67;19.53;;;;;;;0.70;87.17;100329.80;4857776;59;1136862;-85
2021/01/08 10:18:25;;;;;;;259.93;90.00;;;;;;;0.69;87.09;100335.91;4816140;58;1138554;-85
2021/01/08 10:23:31;;;;;;;246.83;90.70;;;;;;;0.72;87.13;100334.50;4803687;59;1140672;-86
2021/01/08 10:28:52;;;;;;;67.90;24.40;;;;;;;0.74;87.06;100331.84;4816067;59;1140308;-85
2021/01/08 10:33:59;;;;;;;302.67;92.60;;;;;;;0.74;87.04;100329.23;4793944;59;1138580;-86
2021/01/08 10:39:05;;;;;;;286.57;99.93;;;;;;;0.75;87.11;100323.97;4798103;59;1141197;-85
2021/01/08 10:44:11;;;;;;;99.23;38.07;;;;;;;0.80;87.08;100327.21;4795644;59;1140626;-86
2021/01/08 10:49:17;;;;;;;346.97;94.93;;;;;;;0.81;87.07;100326.30;4811579;58;1138314;-86
2021/01/08 10:54:22;;;;;;;351.90;98.33;;;;;;;0.80;86.94;100318.10;4705286;59;1140991;-86
2021/01/08 10:59:28;;;;;;;340.97;108.60;;;;;;;0.84;86.89;100314.47;4794779;59;1150120;-85
2021/01/08 11:04:33;;;;;;;334.43;110.07;;;;;;;0.83;86.98;100324.94;4795937;59;1142829;-86
2021/01/08 11:09:39;;;;;;;68.27;28.67;;;;;;;0.85;87.00;100313.56;4794849;59;1142894;-85
2021/01/08 11:14:45;;;;;;;81.80;35.60;;;;;;;0.92;87.05;100312.38;4831957;59;1138354;-85
2021/01/08 11:19:50;;;;;;;153.17;68.33;;;;;;;0.94;87.08;100319.68;4794715;59;1138504;-85
2021/01/08 11:24:56;;;;;;;45.50;21.90;;;;;;;0.97;87.08;100318.72;4795128;59;1140346;-84
2021/01/08 11:30:01;;;;;;;64.92;28.02;;;;;;;1.00;86.86;100310.78;4796126;59;1139093;-84
2021/01/08 11:35:09;;;;;;;38.20;17.57;;;;;;;1.02;86.92;100311.11;4794800;59;1138345;-84
2021/01/08 11:40:15;;;;;;;61.30;25.60;;;;;;;1.04;86.83;100313.66;4796447;59;1138263;-85
2021/01/08 11:45:21;;;;;;;81.12;29.40;;;;;;;1.07;86.86;100319.20;4803287;59;1138368;-85
2021/01/08 11:50:27;;;;;;;82.20;32.60;;;;;;;1.01;86.66;100308.11;4715368;59;1138583;-85
2021/01/08 11:55:32;;;;;;;92.40;33.67;;;;;;;1.02;86.74;100317.63;4813284;59;1138346;-84
2021/01/08 12:00:38;;;;;;;110.12;40.78;;;;;;;1.02;86.83;100320.68;4813200;59;1138944;-84
2021/01/08 12:05:43;;;;;;;116.63;42.30;;;;;;;1.03;86.81;100315.41;4798870;59;1140342;-84
2021/01/08 12:10:50;;;;;;;67.07;29.67;;;;;;;1.08;86.80;100322.16;4878680;59;21484;-84
2021/01/08 12:15:55;;;;;;;62.53;32.28;;;;;;;1.02;86.65;100320.23;4763970;59;1134137;-84
2021/01/08 12:21:01;;;;;;;78.80;28.27;;;;;;;1.02;86.71;100323.28;4785916;60;1138354;-84
2021/01/08 12:26:10;;;;;;;152.67;49.77;;;;;;;1.03;86.75;100318.02;4764929;59;1138755;-85
2021/01/08 12:31:18;;;;;;;159.07;49.37;;;;;;;1.02;86.67;100322.83;4770557;59;1140688;-85
2021/01/08 12:36:24;;;;;;;61.80;24.50;;;;;;;1.03;86.84;100323.68;4784024;59;1140796;-85
2021/01/08 12:41:32;;;;;;;29.90;14.35;;;;;;;1.08;86.87;100324.77;4771518;58;1138602;-85
2021/01/08 12:46:43;;;;;;;34.25;16.48;;;;;;;1.07;86.65;100321.31;4771735;59;1138846;-85
2021/01/08 12:51:53;;;;;;;62.70;24.00;;;;;;;1.07;86.69;100328.31;4758838;59;1138748;-85
2021/01/08 12:56:58;;;;;;;88.00;27.17;;;;;;;1.06;86.65;100322.26;4763272;59;1138436;-85
2021/01/08 13:02:04;;;;;;;85.10;40.33;;;;;;;1.05;86.69;100325.31;4763252;59;1138718;-85
2021/01/08 13:07:10;;;;;;;87.07;29.40;;;;;;;1.07;86.73;100335.64;4763708;59;1138509;-85
2021/01/08 13:12:16;;;;;;;53.37;21.73;;;;;;;1.11;86.72;100336.36;4833790;57;1138642;-86
2021/01/08 13:17:21;;;;;;;57.50;25.73;;;;;;;1.09;86.75;100336.42;4903719;58;1138581;-85
2021/01/08 13:22:28;;;;;;;78.90;29.60;;;;;;;1.14;86.83;100341.45;4903356;58;1138528;-85
2021/01/08 13:27:39;;;;;;;91.45;33.15;;;;;;;1.17;86.77;100337.42;4902508;58;1138724;-85
2021/01/08 13:32:40;;;;;;;95.13;33.50;;;;;;;1.22;86.88;100338.91;4902645;58;1138985;-85
2021/01/08 13:37:46;;;;;;;93.23;34.37;;;;;;;1.23;86.85;100343.66;4922778;58;1138627;-85
2021/01/08 13:42:51;;;;;;;69.70;28.87;;;;;;;1.26;86.81;100343.53;4902486;58;1138633;-85
2021/01/08 13:47:57;;;;;;;75.77;30.33;;;;;;;1.28;86.68;100350.84;4921317;58;1138361;-83
2021/01/08 13:53:02;;;;;;;48.33;21.80;;;;;;;1.28;86.79;100354.29;4921297;58;1138302;-85
2021/01/08 13:58:08;;;;;;;53.43;27.07;;;;;;;1.28;86.82;100359.50;4903264;58;1138591;-85
2021/01/08 14:03:15;;;;;;;79.27;37.53;;;;;;;1.30;86.71;100360.28;4903450;58;1138349;-85
2021/01/08 14:08:20;;;;;;;83.33;36.93;;;;;;;1.32;86.53;100366.73;4843391;59;1138544;-85
2021/01/08 14:13:26;;;;;;;51.08;22.30;;;;;;;1.29;86.62;100360.34;4801294;59;1138898;-85
2021/01/08 14:18:31;;;;;;;46.08;24.77;;;;;;;1.29;86.60;100365.11;4783236;59;1138309;-85
2021/01/08 14:23:37;;;;;;;46.60;24.65;;;;;;;1.33;86.60;100365.83;4785517;59;1138604;-84
2021/01/08 14:28:42;;;;;;;72.87;33.07;;;;;;;1.35;86.62;100371.38;4808028;59;1138282;-85
2021/01/08 14:33:48;;;;;;;76.87;35.70;;;;;;;1.40;87.02;100372.00;4803894;59;1138780;-85
2021/01/08 14:38:55;;;;;;;115.90;43.63;;;;;;;1.48;87.24;100377.36;4784767;59;1138742;-85
2021/01/08 14:44:01;;;;;;;55.13;27.60;;;;;;;1.53;86.88;100378.02;4804773;59;1140670;-84
2021/01/08 14:49:08;;;;;;;58.73;26.57;;;;;;;1.51;86.46;100379.39;4785670;59;1138735;-84
2021/01/08 14:54:13;;;;;;;69.45;37.20;;;;;;;1.46;86.30;100389.15;4805655;59;1138459;-84
2021/01/08 14:59:19;;;;;;;66.47;32.43;;;;;;;1.38;86.41;100390.76;4784742;59;1138935;-84
2021/01/08 15:04:25;;;;;;;57.80;28.00;;;;;;;1.35;86.40;100396.13;4788437;59;1138620;-85
2021/01/08 15:09:31;;;;;;;68.53;34.10;;;;;;;1.34;86.32;100402.24;4788253;59;1138855;-84
2021/01/08 15:14:36;;;;;;;69.83;37.83;;;;;;;1.37;86.63;100395.61;4798076;59;1138647;-84
2021/01/08 15:19:42;;;;;;;105.30;41.27;;;;;;;1.39;86.89;100402.03;4739829;59;1138548;-85
2021/01/08 15:24:47;;;;;;;82.47;36.83;;;;;;;1.44;86.90;100403.15;4742161;60;1140469;-84
2021/01/08 15:29:53;;;;;;;95.57;42.97;;;;;;;1.51;86.82;100409.81;4710874;59;1138382;-83
2021/01/08 15:34:59;;;;;;;95.60;41.90;;;;;;;1.54;86.70;100405.75;4795703;59;1138721;-84
2021/01/08 15:40:06;;;;;;;91.50;42.93;;;;;;;1.53;86.82;100413.20;4799161;59;1138727;-85
2021/01/08 15:45:13;;;;;;;108.97;47.87;;;;;;;1.52;86.83;100422.78;4814874;59;1138785;-85
2021/01/08 15:50:19;;;;;;;117.73;52.60;;;;;;;1.55;86.76;100424.39;4795497;59;1140528;-85
2021/01/08 15:55:25;;;;;;;128.67;58.13;;;;;;;1.64;87.06;100425.32;4796107;59;1140433;-85
2021/01/08 16:00:30;;;;;;;159.97;69.83;;;;;;;1.69;86.98;100428.55;4795450;59;1140675;-86
2021/01/08 16:05:37;;;;;;;215.65;88.72;;;;;;;1.70;86.83;100428.50;4802769;58;1140510;-85
2021/01/08 16:10:44;;;;;;;218.57;85.90;;;;;;;1.66;86.42;100428.72;4796698;59;1140542;-85
2021/01/08 16:15:51;;;;;;;219.73;95.47;;;;;;;1.64;86.11;100443.56;4824177;58;1140451;-85
2021/01/08 16:20:58;;;;;;;389.13;156.23;;;;;;;1.60;86.11;100442.84;4904671;58;1140971;-85
2021/01/08 16:26:03;;;;;;;229.80;96.80;;;;;;;1.51;86.24;100447.14;4934884;58;1142665;-86
2021/01/08 16:31:09;;;;;;;266.63;114.07;;;;;;;1.47;86.19;100447.33;4904194;58;1140815;-85
2021/01/08 16:36:15;;;;;;;197.63;72.80;;;;;;;1.48;86.30;100450.33;4899972;58;1142979;-85
2021/01/08 16:41:20;;;;;;;179.60;77.60;;;;;;;1.47;86.35;100465.11;4904056;58;1140644;-85
2021/01/08 16:46:26;;;;;;;133.70;62.63;;;;;;;1.45;86.41;100463.48;4904356;58;1140496;-86
2021/01/08 16:51:31;;;;;;;160.78;65.22;;;;;;;1.40;86.27;100468.87;4904104;57;1140627;-85
2021/01/08 16:56:46;;;;;;;1262.80;346.63;;;;;;;1.40;86.27;100467.11;4920415;58;1140879;-85
2021/01/08 17:01:52;;;;;;;117.20;56.23;;;;;;;1.49;86.65;100478.09;4899674;58;1145055;-86
2021/01/08 17:06:57;;;;;;;810.77;223.27;;;;;;;1.45;86.38;100472.14;4794074;61;1140704;-85
2021/01/08 17:12:04;;;;;;;857.67;236.97;;;;;;;1.43;86.49;100474.41;4814763;59;1142440;-85
2021/01/08 17:17:10;;;;;;;170.77;60.83;;;;;;;1.46;86.46;100471.23;4776926;60;1142993;-85
2021/01/08 17:22:15;;;;;;;253.27;75.17;;;;;;;1.49;86.44;100475.03;4839600;59;1140511;-85
2021/01/08 17:27:21;;;;;;;340.07;120.13;;;;;;;1.55;86.98;100480.42;4701356;61;1140507;-85
2021/01/08 17:32:27;;;;;;;330.63;116.40;;;;;;;1.48;86.51;100479.84;4774339;59;1142608;-85
2021/01/08 17:37:32;;;;;;;390.20;122.78;;;;;;;1.47;86.27;100483.81;4694302;60;1142528;-86
2021/01/08 17:42:38;;;;;;;273.23;96.40;;;;;;;1.45;86.20;100487.78;4802635;59;1142658;-85
2021/01/08 17:47:44;;;;;;;511.23;142.93;;;;;;;1.46;86.48;100488.17;4708613;61;1140502;-84
2021/01/08 17:52:49;;;;;;;805.83;226.33;;;;;;;1.45;86.61;100491.69;4623234;60;1142513;-85
2021/01/08 17:57:55;;;;;;;313.55;92.40;;;;;;;1.45;86.70;100493.45;4701910;60;1142439;-84
2021/01/08 18:03:00;;;;;;;188.93;72.60;;;;;;;1.51;86.65;100497.97;4657110;61;1140388;-85
2021/01/08 18:08:06;;;;;;;292.20;106.03;;;;;;;1.55;86.71;100503.42;4600280;61;1140318;-86
2021/01/08 18:13:12;;;;;;;173.73;76.93;;;;;;;1.51;86.46;100507.09;4714253;59;1142595;-85
2021/01/08 18:18:18;;;;;;;148.30;71.90;;;;;;;1.39;86.17;100504.95;4776919;60;1140474;-85
2021/01/08 18:23:28;;;;;;;131.23;62.17;;;;;;;1.35;86.07;100507.31;4851014;58;1140793;-86
2021/01/08 18:28:30;;;;;;;136.43;59.70;;;;;;;1.30;86.02;100510.09;4906171;59;1140947;-86
2021/01/08 18:33:36;;;;;;;82.80;41.20;;;;;;;1.27;86.26;100505.00;4847152;58;1150151;-85
2021/01/08 18:38:42;;;;;;;95.00;48.30;;;;;;;1.25;86.41;100510.72;4869067;59;1138282;-86
2021/01/08 18:43:48;;;;;;;89.97;45.60;;;;;;;1.24;86.42;100500.35;4851995;58;1138466;-86
2021/01/08 18:48:54;;;;;;;101.17;48.80;;;;;;;1.25;86.23;100509.86;4943318;60;21207;-86
2021/01/08 18:53:59;;;;;;;106.10;48.47;;;;;;;1.22;86.21;100510.83;4866636;59;1136217;-86
2021/01/08 18:59:07;;;;;;;116.40;51.47;;;;;;;1.19;86.43;100511.43;4848360;59;1140358;-86
2021/01/08 19:04:12;;;;;;;141.83;55.80;;;;;;;1.15;86.43;100508.09;4923501;59;1138418;-86
2021/01/08 19:09:18;;;;;;;130.52;72.90;;;;;;;1.13;86.24;100511.20;4902958;58;1140556;-86
2021/01/08 19:14:26;;;;;;;128.10;71.77;;;;;;;1.14;86.11;100515.96;4849505;58;1140759;-86
2021/01/08 19:19:31;;;;;;;88.17;48.13;;;;;;;1.10;86.23;100519.13;4910278;59;1140406;-85
2021/01/08 19:24:36;;;;;;;93.13;43.20;;;;;;;1.08;86.44;100520.94;4844547;58;1138833;-86
2021/01/08 19:29:42;;;;;;;96.03;43.03;;;;;;;1.10;86.51;100523.03;4866813;59;1138969;-86
2021/01/08 19:34:47;;;;;;;108.77;49.10;;;;;;;1.21;86.69;100533.91;4775194;59;1138263;-86
2021/01/08 19:39:53;;;;;;;112.77;52.88;;;;;;;1.23;86.58;100535.13;4740166;60;1140325;-87
2021/01/08 19:44:58;;;;;;;109.67;50.73;;;;;;;1.21;86.52;100536.52;4827905;61;21183;-86
2021/01/08 19:50:06;;;;;;;98.47;45.17;;;;;;;1.17;86.33;100536.23;4755567;59;1136469;-86
2021/01/08 19:55:15;;;;;;;94.07;42.93;;;;;;;1.17;86.33;100540.59;4754378;59;1138377;-86
2021/01/08 20:00:21;;;;;;;109.90;48.83;;;;;;;1.13;86.19;100546.81;4879110;58;1138365;-84
2021/01/08 20:05:27;;;;;;;124.50;55.25;;;;;;;1.07;86.41;100554.88;4690020;60;1150180;-85
2021/01/08 20:10:33;;;;;;;123.78;52.08;;;;;;;1.09;86.54;100555.65;4866785;59;1140377;-84
2021/01/08 20:15:38;;;;;;;118.07;57.33;;;;;;;1.15;86.44;100565.84;4868923;58;1140676;-85
2021/01/08 20:20:44;;;;;;;165.00;77.85;;;;;;;1.11;86.65;100557.30;4874702;58;1140905;-85
2021/01/08 20:25:58;;;;;;;258.80;112.05;;;;;;;1.15;86.57;100565.39;4886321;58;1140697;-85
2021/01/08 20:30:58;;;;;;;255.80;111.53;;;;;;;1.13;86.45;100571.56;4902578;59;1142473;-85
2021/01/08 20:36:05;;;;;;;205.07;95.47;;;;;;;1.13;86.41;100578.92;4905570;58;1142962;-85
2021/01/08 20:41:10;;;;;;;101.33;49.30;;;;;;;1.15;86.52;100578.42;4786461;60;1140599;-84
2021/01/08 20:46:16;;;;;;;185.43;71.30;;;;;;;1.12;86.52;100585.48;4949319;59;1140384;-85
2021/01/08 20:51:21;;;;;;;118.30;51.60;;;;;;;1.11;86.50;100584.64;4890331;58;1140837;-83
2021/01/08 20:56:27;;;;;;;85.72;37.70;;;;;;;1.05;86.14;100587.49;4931068;58;1140360;-83
2021/01/08 21:01:35;;;;;;;69.17;33.90;;;;;;;1.02;86.08;100598.02;4890083;57;1138882;-82
2021/01/08 21:06:41;;;;;;;66.80;34.80;;;;;;;0.98;86.22;100594.67;4886676;58;1138765;-82
2021/01/08 21:11:47;;;;;;;84.50;40.97;;;;;;;0.96;86.53;100608.20;4908193;58;1138303;-81
2021/01/08 21:16:54;;;;;;;98.80;50.40;;;;;;;0.96;86.53;100608.20;4989130;59;21183;-82
2021/01/08 21:22:02;;;;;;;86.33;41.83;;;;;;;0.95;86.33;100607.80;4969127;59;1134254;-82
2021/01/08 21:27:07;;;;;;;70.77;33.60;;;;;;;0.98;86.63;100608.99;4887033;58;1138683;-82
2021/01/08 21:32:13;;;;;;;75.63;34.57;;;;;;;0.98;86.63;100608.99;4889923;58;1138417;-82
2021/01/08 21:37:19;;;;;;;69.73;34.23;;;;;;;0.96;86.53;100607.34;4929919;58;1138204;-82
2021/01/08 21:42:28;;;;;;;73.37;34.73;;;;;;;0.96;86.34;100608.65;4987542;59;21223;-82
2021/01/08 21:47:34;;;;;;;73.27;33.47;;;;;;;0.96;86.33;100607.34;4892582;58;1134374;-82
2021/01/08 21:52:41;;;;;;;188.13;82.60;;;;;;;0.97;86.51;100611.65;4806007;60;1138506;-83
2021/01/08 21:57:47;;;;;;;143.83;47.87;;;;;;;0.96;86.58;100617.31;4966263;59;1140583;-82
2021/01/08 22:02:52;;;;;;;113.08;43.20;;;;;;;0.99;86.51;100617.20;4911067;58;1140359;-82
2021/01/08 22:07:58;;;;;;;90.33;39.07;;;;;;;1.00;86.41;100616.30;4891110;58;1140752;-83
2021/01/08 22:13:03;;;;;;;92.87;38.60;;;;;;;1.02;86.50;100617.09;4892332;58;1138820;-82
2021/01/08 22:18:09;;;;;;;145.73;51.80;;;;;;;0.99;86.57;100621.11;4952829;58;1138425;-82
2021/01/08 22:23:14;;;;;;;199.07;69.93;;;;;;;0.99;86.50;100621.56;4889723;58;1140542;-82
2021/01/08 22:28:20;;;;;;;250.63;79.57;;;;;;;1.00;86.40;100615.45;4869368;59;1140349;-82
2021/01/08 22:33:26;;;;;;;189.60;59.70;;;;;;;1.00;86.45;100616.30;4910187;59;1140507;-82
2021/01/08 22:38:31;;;;;;;154.67;51.80;;;;;;;0.98;86.50;100615.95;4835498;59;1140383;-82
2021/01/08 22:43:37;;;;;;;159.78;48.40;;;;;;;0.93;86.50;100616.56;4869855;59;1140537;-83
2021/01/08 22:48:43;;;;;;;147.75;48.75;;;;;;;0.93;86.44;100617.41;4835326;59;1140642;-82
2021/01/08 22:53:49;;;;;;;98.00;45.53;;;;;;;0.94;86.50;100613.91;4854339;59;1140550;-82
2021/01/08 22:58:56;;;;;;;96.93;45.63;;;;;;;0.95;86.70;100619.52;4925313;58;1138306;-82